Flight Track Log - Related Links

Times and Time Zones

All times are in EST time to prevent confusion due to time zone crossing. See the SCX8700 flight status page for this flight to view local times or setup timezone preferences in your user account.

Time Position Orientation Groundspeed Altitude Reporting Facility
EST Latitude Longitude Course Direction KTS MPH feet Rate Location/Type
Mon 02:08:09 PM 39.8011 -82.9461 299° West 139 160 40,000  Level Indianapolis Center
Mon 02:09:10 PM 39.7794 -82.9892 237° Southwest 226 260 4,700 -14,976 Descending Indianapolis Center
Mon 02:10:12 PM 39.8214 -83.0736 303° West 237 273 9,300 3,242 Climbing Indianapolis Center
Mon 02:11:00 PM 39.9073 -83.1461 288° West  Level FlightAware Approximate
Mon 02:11:14 PM 39.8589 -83.1508 302° West 253 291 11,400  Level Indianapolis Center
Mon 02:12:00 PM 39.9505 -83.2677 303° West  Level FlightAware Approximate
Mon 02:12:16 PM 39.9036 -83.2278 307° West 267 307 12,100  Level Indianapolis Center
Mon 02:13:00 PM 40.0071 -83.3837 299° West  Level FlightAware Approximate
Mon 02:13:18 PM 39.9458 -83.3039 306° West 267 307 13,200  Level Indianapolis Center
Mon 02:14:19 PM 39.9889 -83.3789 307° West 266 306 14,400 2,878 Climbing Indianapolis Center
Mon 02:15:21 PM 40.0411 -83.4728 306° West 266 306 19,100 3,968 Climbing Indianapolis Center
Mon 02:16:23 PM 40.0867 -83.5544 306° West 277 319 22,600 2,226 Climbing Indianapolis Center
Mon 02:17:25 PM 40.1356 -83.6406 307° West 289 333 23,700 1,984 Climbing Indianapolis Center
Mon 02:18:27 PM 40.1844 -83.7275 306° West 295 339 26,700 2,565 Climbing Indianapolis Center
Mon 02:19:29 PM 40.2336 -83.8181 305° West 300 345 29,000 1,113 Climbing Indianapolis Center
Mon 02:20:31 PM 40.2856 -83.9133 306° West 315 362 29,000 293 Level Indianapolis Center
Mon 02:21:32 PM 40.3500 -84.0281 306° West 322 371 29,600 537 Climbing Indianapolis Center
Mon 02:22:34 PM 40.4036 -84.1256 306° West 327 376 30,100 1,452 Climbing Indianapolis Center
Mon 02:23:36 PM 40.4575 -84.2236 306° West 330 380 32,600 2,032 Climbing Indianapolis Center
Mon 02:24:38 PM 40.5111 -84.3219 306° West 330 380 34,300 1,452 Climbing Indianapolis Center
Mon 02:25:40 PM 40.5678 -84.4261 306° West 345 397 35,600 1,355 Climbing Indianapolis Center
Mon 02:26:42 PM 40.6267 -84.5331 306° West 356 410 37,100 1,403 Climbing Indianapolis Center
Mon 02:27:44 PM 40.6986 -84.6658 306° West 366 421 38,500 1,268 Climbing Indianapolis Center
Mon 02:28:45 PM 40.7594 -84.7792 305° West 374 430 39,700 732 Climbing Indianapolis Center
Mon 02:29:47 PM 40.8217 -84.8942 306° West 382 440 40,000 145 Climbing Indianapolis Center
Mon 02:30:49 PM 40.8864 -85.0136 306° West 382 440 40,000  Level Indianapolis Center
Mon 02:36:28 PM 41.2072 -85.6770 306° West 374 430 40,000  Level FlightAware ADS-B
Mon 02:37:09 PM 41.2445 -85.7578 302° West 377 434 40,000  Level FlightAware ADS-B
Mon 02:37:39 PM 41.2716 -85.8165 302° West 377 434 40,000  Level FlightAware ADS-B
Mon 02:38:38 PM 41.3252 -85.9332 301° West 378 435 40,000  Level FlightAware ADS-B
Mon 02:39:08 PM 41.3508 -85.9892 301° West 378 435 40,000  Level FlightAware ADS-B
Mon 02:39:50 PM 41.3901 -86.0746 301° West 378 435 40,000  Level FlightAware ADS-B
Mon 02:40:21 PM 41.4183 -86.1364 301° West 377 434 40,000  Level FlightAware ADS-B
Mon 02:40:51 PM 41.4461 -86.1973 301° West 376 433 40,000  Level FlightAware ADS-B
Mon 02:41:31 PM 41.4777 -86.2669 301° West 377 434 40,000  Level FlightAware ADS-B
Mon 02:42:20 PM 41.5197 -86.3599 301° West 378 435 40,000  Level FlightAware ADS-B
Mon 02:42:51 PM 41.5542 -86.4362 301° West 379 436 40,000  Level FlightAware ADS-B
Mon 02:43:25 PM 41.5847 -86.5033 301° West 381 438 40,000  Level FlightAware ADS-B
Mon 02:44:01 PM 41.6260 -86.5688 310° West 390 449 40,000  Level FlightAware ADS-B
Mon 02:45:02 PM 41.7045 -86.6715 316° Northwest 388 447 40,000  Level FlightAware ADS-B
Mon 02:45:32 PM 41.7419 -86.7206 316° Northwest 389 448 40,000  Level FlightAware ADS-B
Mon 02:46:04 PM 41.7822 -86.7735 316° Northwest 389 448 40,000  Level FlightAware ADS-B
Mon 02:46:55 PM 41.8479 -86.8601 316° Northwest 389 448 40,000  Level FlightAware ADS-B
Mon 02:47:44 PM 41.9114 -86.9435 316° Northwest 390 449 40,000  Level FlightAware ADS-B
Mon 02:48:15 PM 41.9516 -86.9966 316° Northwest 389 448 40,000  Level FlightAware ADS-B
Mon 02:48:45 PM 41.9896 -87.0471 315° West 389 448 40,000  Level FlightAware ADS-B
Mon 02:49:26 PM 42.0422 -87.1172 315° West 390 449 40,000  Level FlightAware ADS-B
Mon 02:49:56 PM 42.0802 -87.1678 315° West 390 449 40,000  Level FlightAware ADS-B
Mon 02:50:26 PM 42.1183 -87.2185 315° West 389 448 40,000  Level FlightAware ADS-B
Mon 02:51:06 PM 42.1691 -87.2866 315° West 388 447 40,000  Level FlightAware ADS-B
Mon 02:51:51 PM 42.2256 -87.3623 315° West 388 447 40,000  Level FlightAware ADS-B
Mon 02:52:23 PM 42.2671 -87.4178 315° West 389 448 40,000  Level FlightAware ADS-B
Mon 02:52:59 PM 42.3127 -87.4790 315° West 389 448 40,000  Level FlightAware ADS-B
Mon 02:53:36 PM 42.3563 -87.5381 315° West 389 448 40,000  Level FlightAware ADS-B
Mon 02:54:06 PM 42.3960 -87.5918 315° West 389 448 40,000  Level FlightAware ADS-B
Mon 02:54:36 PM 42.4354 -87.6451 315° West 390 449 40,000  Level FlightAware ADS-B
Mon 02:55:16 PM 42.4863 -87.7140 315° West 391 450 40,000  Level FlightAware ADS-B
Mon 02:55:56 PM 42.5372 -87.7831 315° West 392 451 40,000  Level FlightAware ADS-B
Mon 02:56:26 PM 42.5762 -87.8366 315° West 393 452 40,000  Level FlightAware ADS-B
Mon 02:57:06 PM 42.6270 -87.9057 315° West 395 455 40,000  Level FlightAware ADS-B
Mon 02:57:36 PM 42.6648 -87.9574 315° West 395 455 40,000  Level FlightAware ADS-B
Mon 02:58:24 PM 42.7270 -88.0426 315° West 396 456 40,000  Level FlightAware ADS-B
Mon 02:58:56 PM 42.7614 -88.0900 315° West 396 456 40,000  Level FlightAware ADS-B
Mon 02:59:26 PM 42.8058 -88.1511 315° West 395 455 40,000  Level FlightAware ADS-B
Mon 02:59:56 PM 42.8413 -88.2003 315° West 394 453 40,000  Level FlightAware ADS-B
Mon 03:00:36 PM 42.8971 -88.2776 315° West 393 452 40,000  Level FlightAware ADS-B
Mon 03:01:10 PM 42.9399 -88.3374 314° West 393 452 40,000  Level FlightAware ADS-B (KMSN)
Mon 03:01:42 PM 42.9800 -88.3932 314° West 393 452 40,000  Level FlightAware ADS-B (KMSN)
Mon 03:02:16 PM 43.0232 -88.4531 315° West 393 452 40,000  Level FlightAware ADS-B
Mon 03:02:52 PM 43.0676 -88.5151 315° West 393 452 40,000  Level FlightAware ADS-B (KMSN)
Mon 03:03:23 PM 43.1084 -88.5722 314° West 393 452 40,000  Level FlightAware ADS-B (KMSN)
Mon 03:03:53 PM 43.1158 -88.5824 314° West 393 452 40,000  Level FlightAware ADS-B (KMSN)
Mon 03:04:32 PM 43.1959 -88.6948 314° West 392 451 40,000  Level FlightAware ADS-B (KMSN)
Mon 03:05:03 PM 43.2348 -88.7496 314° West 393 452 40,000  Level FlightAware ADS-B (KMSN)
Mon 03:05:39 PM 43.2477 -88.7678 314° West 393 452 40,000  Level FlightAware ADS-B (KMSN)
Mon 03:06:13 PM 43.3235 -88.8744 314° West 393 452 40,000  Level FlightAware ADS-B (KMSN)
Mon 03:06:44 PM 43.3562 -88.9211 314° West 394 453 40,000  Level FlightAware ADS-B
Mon 03:07:14 PM 43.3975 -88.9795 314° West 394 453 40,000  Level FlightAware ADS-B
Mon 03:07:48 PM 43.4372 -89.0364 314° West 393 452 40,000  Level FlightAware ADS-B (KMSN)
Mon 03:08:23 PM 43.4870 -89.1074 314° West 392 451 40,000  Level FlightAware ADS-B (KMSN)
Mon 03:08:53 PM 43.5207 -89.1555 314° West 393 452 40,000  Level FlightAware ADS-B
Mon 03:09:23 PM 43.5623 -89.2150 314° West 392 451 40,000  Level FlightAware ADS-B
Mon 03:09:54 PM 43.5943 -89.2606 314° West 391 450 40,000  Level FlightAware ADS-B
Mon 03:10:44 PM 43.6640 -89.3611 314° West 391 450 40,000  Level FlightAware ADS-B
Mon 03:11:14 PM 43.7016 -89.4150 314° West 391 450 40,000  Level FlightAware ADS-B
Mon 03:11:44 PM 43.7388 -89.4687 314° West 391 450 40,000  Level FlightAware ADS-B
Mon 03:12:22 PM 43.7575 -89.4958 314° West 392 451 40,000 -43 Level FlightAware ADS-B
Mon 03:14:02 PM 43.9116 -89.7198 314° West 390 449 39,900 -802 Descending FlightAware ADS-B
Mon 03:15:14 PM 43.9858 -89.8328 314° West 389 448 37,700 -1,398 Descending Minneapolis Center
Mon 03:16:15 PM 44.0411 -89.9594 301° West 385 443 36,800 -878 Descending Minneapolis Center
Mon 03:17:17 PM 44.0975 -90.0842 302° West 385 443 35,900 -927 Descending Minneapolis Center
Mon 03:18:18 PM 44.1517 -90.2042 302° West 372 428 34,900 -934 Descending Minneapolis Center
Mon 03:19:19 PM 44.2136 -90.3444 302° West 359 413 34,000 -439 Descending Minneapolis Center
Mon 03:20:21 PM 44.2628 -90.4542 302° West 342 394 34,000  Level Minneapolis Center
Mon 03:21:22 PM 44.3050 -90.5794 295° West 341 392 34,000  Level Minneapolis Center
Mon 03:22:24 PM 44.3444 -90.6928 296° West 341 392 34,000  Level Minneapolis Center
Mon 03:23:25 PM 44.3881 -90.8236 295° West 341 392 34,000  Level Minneapolis Center
Mon 03:24:27 PM 44.4294 -90.9450 296° West 342 394 34,000  Level Minneapolis Center
Mon 03:25:28 PM 44.4703 -91.0672 295° West 343 395 34,000 -639 Level Minneapolis Center
Mon 03:26:29 PM 44.5108 -91.1883 295° West 344 396 32,700 -1,805 Descending Minneapolis Center
Mon 03:27:31 PM 44.5497 -91.3042 295° West 336 387 30,300 -2,195 Descending Minneapolis Center
Mon 03:28:32 PM 44.5850 -91.4097 295° West 312 359 28,200 -2,066 Descending Minneapolis Center
Mon 03:29:33 PM 44.6183 -91.5086 295° West 290 334 26,100 -1,902 Descending Minneapolis Center
Mon 03:30:35 PM 44.6486 -91.6031 294° West 274 315 24,300 -1,951 Descending Minneapolis Center
Mon 03:31:36 PM 44.6831 -91.7069 295° West 253 291 22,100 -1,951 Descending Minneapolis Center
Mon 03:32:38 PM 44.7139 -91.7972 296° West 251 289 20,300 -1,805 Descending Minneapolis Center
Mon 03:33:39 PM 44.7439 -91.8892 295° West 255 293 18,400 -1,721 Descending Minneapolis Center
Mon 03:34:40 PM 44.7728 -91.9803 294° West 256 295 16,800 -1,756 Descending Minneapolis Center
Mon 03:35:42 PM 44.8031 -92.0728 295° West 257 296 14,800 -1,902 Descending Minneapolis Center
Mon 03:36:43 PM 44.8325 -92.1653 294° West 258 297 12,900 -1,869 Descending Minneapolis Center
Mon 03:37:44 PM 44.8628 -92.2575 295° West 259 298 11,000 -1,415 Descending Minneapolis Center
Mon 03:38:46 PM 44.8706 -92.3514 277° West 258 297 10,000 -976 Descending Minneapolis Center
Mon 03:39:47 PM 44.8278 -92.4567 240° Southwest 259 298 9,000 -976 Descending Minneapolis Center
Mon 03:40:49 PM 44.7989 -92.5450 245° Southwest 253 291 8,000 -927 Descending Minneapolis Center
Mon 03:41:50 PM 44.7697 -92.6322 245° Southwest 248 285 7,100 -634 Descending Minneapolis Center
Mon 03:42:52 PM 44.7633 -92.7239 264° West 242 278 6,700 -585 Descending Minneapolis Center
Mon 03:43:53 PM 44.7622 -92.8125 269° West 232 267 5,900 -738 Descending Minneapolis Center
Mon 03:44:54 PM 44.7717 -92.8906 280° West 210 242 5,200 -634 Descending Minneapolis Center
Mon 03:45:56 PM 44.7889 -92.9583 290° West 191 220 4,600 -732 Descending Minneapolis Center
Mon 03:46:57 PM 44.8047 -93.0242 289° West 184 212 3,700 -878 Descending Minneapolis Center
Mon 03:47:59 PM 44.8289 -93.0994 294° West 179 206 2,800 -927 Descending Minneapolis Center
Mon 03:49:00 PM 44.8506 -93.1481 302° West 150 173 1,800 -780 Descending Minneapolis Center
Mon 03:50:02 PM 44.8675 -93.1867 302° West 118 136 1,200 -581 Descending Minneapolis Center
Mon 03:52:00 PM 44.8667 -93.2167 270° West  Level FlightAware Approximate

Login

Don't have an account? Register now (free) for customized features, flight alerts, and more!